Time;durP1;ratioP1;P1;durP2;ratioP2;P2;SDS_P1;SDS_P2;PMS_P1;PMS_P2;Temp;Humidity;BMP_temperature;BMP_pressure;BME280_temperature;BME280_humidity;BME280_pressure;Samples;Min_cycle;Max_cycle;Signal;HPM_P1;HPM_P2
2022/01/07 00:00:55;;;;;;;11.20;4.17;;;6.70;69.60;;;;;;5094968;28;20447;-63
2022/01/07 00:03:22;;;;;;;13.77;4.40;;;6.70;69.60;;;;;;5092986;28;20024;-63
2022/01/07 00:05:48;;;;;;;10.50;3.67;;;6.70;69.60;;;;;;5087341;28;20020;-63
2022/01/07 00:08:13;;;;;;;11.20;4.70;;;6.70;69.50;;;;;;5075987;28;20078;-64
2022/01/07 00:10:39;;;;;;;9.60;3.93;;;6.70;70.20;;;;;;5090096;28;20024;-63
2022/01/07 00:13:05;;;;;;;11.80;4.00;;;6.70;69.50;;;;;;5090451;28;20029;-64
2022/01/07 00:15:31;;;;;;;14.27;5.00;;;6.70;69.40;;;;;;5092732;28;20048;-63
2022/01/07 00:17:58;;;;;;;12.87;4.40;;;6.70;69.40;;;;;;5076124;28;20097;-63
2022/01/07 00:20:24;;;;;;;12.73;4.33;;;6.60;69.40;;;;;;5090930;28;20032;-63
2022/01/07 00:22:50;;;;;;;11.10;4.37;;;6.60;69.40;;;;;;5094094;28;20416;-64
2022/01/07 00:25:17;;;;;;;14.17;5.13;;;6.70;69.30;;;;;;5075723;28;20062;-63
2022/01/07 00:27:43;;;;;;;11.97;4.37;;;6.70;69.30;;;;;;5093601;28;20039;-64
2022/01/07 00:30:12;;;;;;;12.50;4.87;;;6.70;69.90;;;;;;5093496;28;20441;-63
2022/01/07 00:32:38;;;;;;;10.50;4.50;;;6.70;69.30;;;;;;5093300;28;20032;-63
2022/01/07 00:35:05;;;;;;;11.90;4.97;;;6.60;69.30;;;;;;5089292;28;20028;-63
2022/01/07 00:37:31;;;;;;;11.73;4.27;;;6.60;69.30;;;;;;5084948;28;20407;-64
2022/01/07 00:39:56;;;;;;;17.03;4.30;;;6.60;69.30;;;;;;5075796;28;20071;-64
2022/01/07 00:42:22;;;;;;;8.93;4.03;;;6.60;69.40;;;;;;5093569;28;20036;-64
2022/01/07 00:44:47;;;;;;;10.97;4.20;;;6.60;69.50;;;;;;5074698;28;20027;-64
2022/01/07 00:47:13;;;;;;;9.57;3.90;;;6.60;69.50;;;;;;5081008;28;20032;-64
2022/01/07 00:49:38;;;;;;;13.60;4.60;;;6.60;69.70;;;;;;5093821;28;20345;-64
2022/01/07 00:52:05;;;;;;;11.53;4.50;;;6.60;69.80;;;;;;5075901;28;20028;-64
2022/01/07 00:54:30;;;;;;;9.13;3.50;;;6.60;70.00;;;;;;5075890;28;20028;-63
2022/01/07 00:56:56;;;;;;;8.97;3.73;;;6.60;70.00;;;;;;5093801;28;20028;-64
2022/01/07 00:59:22;;;;;;;11.20;3.90;;;6.50;70.20;;;;;;5093833;28;20034;-64
2022/01/07 01:01:47;;;;;;;11.43;3.73;;;6.50;70.30;;;;;;5093548;28;20109;-64
2022/01/07 01:04:13;;;;;;;10.87;3.93;;;6.50;70.50;;;;;;5075825;28;20036;-64
2022/01/07 01:06:41;;;;;;;8.13;3.90;;;6.50;70.70;;;;;;5093631;28;20078;-64
2022/01/07 01:09:10;;;;;;;15.17;5.00;;;6.50;70.70;;;;;;5093598;28;20034;-64
2022/01/07 01:11:36;;;;;;;13.47;4.27;;;6.50;70.80;;;;;;5076245;28;20034;-64
2022/01/07 01:14:01;;;;;;;10.93;4.40;;;6.50;70.90;;;;;;5093417;28;20348;-63
2022/01/07 01:16:27;;;;;;;11.87;4.13;;;6.50;71.00;;;;;;5093561;28;20042;-64
2022/01/07 01:18:53;;;;;;;15.20;4.33;;;6.50;71.30;;;;;;5093734;28;20122;-64
2022/01/07 01:21:18;;;;;;;12.70;4.80;;;6.50;71.40;;;;;;5093464;28;20032;-64
2022/01/07 01:23:45;;;;;;;11.63;4.37;;;6.40;71.60;;;;;;5093432;28;20126;-64
2022/01/07 01:26:14;;;;;;;11.13;4.53;;;6.40;71.70;;;;;;5092746;28;20067;-64
2022/01/07 01:28:40;;;;;;;10.03;4.50;;;6.40;71.90;;;;;;5093502;28;20081;-63
2022/01/07 01:31:06;;;;;;;8.00;3.83;;;6.30;72.00;;;;;;5093271;28;20059;-64
2022/01/07 01:33:32;;;;;;;10.70;4.73;;;6.20;72.20;;;;;;5075616;28;20068;-63
2022/01/07 01:35:57;;;;;;;10.37;4.60;;;6.20;72.30;;;;;;5079093;28;20443;-63
2022/01/07 01:38:23;;;;;;;8.93;3.73;;;6.20;72.50;;;;;;5097176;28;20044;-63
2022/01/07 01:40:49;;;;;;;10.67;4.27;;;6.20;72.70;;;;;;5096930;28;20100;-64
2022/01/07 01:43:14;;;;;;;10.43;4.40;;;6.20;72.80;;;;;;5077789;28;20411;-63
2022/01/07 01:45:40;;;;;;;9.77;4.57;;;6.20;72.90;;;;;;5096796;28;20081;-63
2022/01/07 01:48:05;;;;;;;11.23;4.27;;;6.10;73.00;;;;;;5097109;28;20360;-64
2022/01/07 01:50:31;;;;;;;10.87;4.27;;;6.20;73.10;;;;;;5097033;28;20031;-63
2022/01/07 01:52:57;;;;;;;13.73;5.20;;;6.20;73.20;;;;;;5096693;28;20026;-63
2022/01/07 01:55:27;;;;;;;8.77;4.63;;;6.20;73.30;;;;;;5096124;28;20550;-63
2022/01/07 01:57:54;;;;;;;13.13;4.47;;;6.20;73.40;;;;;;5096579;28;20085;-64
2022/01/07 02:00:21;;;;;;;10.83;5.23;;;6.20;73.40;;;;;;5096628;28;20024;-64
2022/01/07 02:02:47;;;;;;;10.30;4.50;;;6.20;73.50;;;;;;5096466;28;20059;-63
2022/01/07 02:05:13;;;;;;;14.47;4.33;;;6.10;73.60;;;;;;5078696;28;20043;-64
2022/01/07 02:07:40;;;;;;;10.67;4.90;;;6.10;73.70;;;;;;5096546;28;20074;-64
2022/01/07 02:10:09;;;;;;;13.27;4.10;;;6.10;73.80;;;;;;5096286;28;20032;-63
2022/01/07 02:12:35;;;;;;;9.57;4.63;;;6.10;73.80;;;;;;5092331;28;20349;-63
2022/01/07 02:15:00;;;;;;;11.83;4.93;;;6.10;74.50;;;;;;5096224;28;20028;-64
2022/01/07 02:17:27;;;;;;;10.13;4.30;;;6.20;74.00;;;;;;5078528;28;20039;-64
2022/01/07 02:19:53;;;;;;;10.93;4.10;;;6.20;74.00;;;;;;5096343;28;20036;-63
2022/01/07 02:22:19;;;;;;;12.63;5.37;;;6.20;74.00;;;;;;5096056;28;20514;-63
2022/01/07 02:24:47;;;;;;;10.33;4.23;;;6.20;74.00;;;;;;5096204;28;20032;-63
2022/01/07 02:27:13;;;;;;;10.37;4.80;;;6.10;74.00;;;;;;5095712;28;20048;-63
2022/01/07 02:29:40;;;;;;;10.53;4.20;;;6.20;74.10;;;;;;5095751;28;20028;-64
2022/01/07 02:32:06;;;;;;;11.03;4.07;;;6.20;74.20;;;;;;5096073;28;20099;-64
2022/01/07 02:34:32;;;;;;;13.17;5.10;;;6.20;74.20;;;;;;5095769;28;20491;-64
2022/01/07 02:36:57;;;;;;;10.23;3.90;;;6.20;74.20;;;;;;5078193;28;20067;-63
2022/01/07 02:39:23;;;;;;;11.40;4.17;;;6.20;74.30;;;;;;5095985;28;20043;-63
2022/01/07 02:41:49;;;;;;;12.07;4.33;;;6.20;74.20;;;;;;5095405;28;20095;-63
2022/01/07 02:44:14;;;;;;;9.90;4.03;;;6.20;74.20;;;;;;5077936;28;20047;-63
2022/01/07 02:46:41;;;;;;;11.80;3.40;;;6.20;74.20;;;;;;5077905;28;20338;-64
2022/01/07 02:49:15;;;;;;;12.20;4.77;;;6.20;74.20;;;;;;5089892;28;20115;-64
2022/01/07 02:51:41;;;;;;;12.03;4.00;;;6.20;74.20;;;;;;5095691;28;20099;-64
2022/01/07 02:54:07;;;;;;;8.33;3.57;;;6.20;74.20;;;;;;5094940;28;20142;-64
2022/01/07 02:56:34;;;;;;;11.13;3.67;;;6.20;74.30;;;;;;5095509;28;20024;-64
2022/01/07 02:59:00;;;;;;;8.80;3.70;;;6.20;74.30;;;;;;5077810;28;20078;-64
2022/01/07 03:01:26;;;;;;;12.37;3.80;;;6.20;74.30;;;;;;5060563;28;20032;-64
2022/01/07 03:03:51;;;;;;;9.07;3.63;;;6.20;74.40;;;;;;5095428;28;20490;-63
2022/01/07 03:06:18;;;;;;;10.80;3.93;;;6.20;74.40;;;;;;5095252;28;20030;-64
2022/01/07 03:08:48;;;;;;;9.60;3.97;;;6.20;74.50;;;;;;5095417;28;20028;-64
2022/01/07 03:11:14;;;;;;;10.03;3.77;;;6.30;75.20;;;;;;5094889;28;20039;-64
2022/01/07 03:13:40;;;;;;;7.00;3.37;;;6.20;74.50;;;;;;5095453;28;20111;-64
2022/01/07 03:16:06;;;;;;;10.50;3.70;;;6.20;74.70;;;;;;5094207;28;20107;-63
2022/01/07 03:18:32;;;;;;;10.87;3.73;;;6.20;74.80;;;;;;5094515;28;20138;-64
2022/01/07 03:20:59;;;;;;;11.30;4.20;;;6.20;74.70;;;;;;5094820;28;20032;-63
2022/01/07 03:23:26;;;;;;;12.00;4.33;;;6.20;74.70;;;;;;5092625;28;20046;-63
2022/01/07 03:25:53;;;;;;;8.73;3.57;;;6.20;74.70;;;;;;5094375;28;20032;-63
2022/01/07 03:28:18;;;;;;;8.47;3.53;;;6.30;74.90;;;;;;5094020;28;20048;-64
2022/01/07 03:30:44;;;;;;;10.50;3.70;;;6.20;74.70;;;;;;5077263;28;20034;-64
2022/01/07 03:33:10;;;;;;;9.17;3.87;;;6.20;74.80;;;;;;5093719;28;20027;-64
2022/01/07 03:35:36;;;;;;;8.77;3.70;;;6.20;74.80;;;;;;5094642;28;20081;-64
2022/01/07 03:38:02;;;;;;;9.87;3.70;;;6.20;74.80;;;;;;5076994;28;20031;-64
2022/01/07 03:40:28;;;;;;;9.97;4.00;;;6.20;74.80;;;;;;5094588;28;20085;-64
2022/01/07 03:42:54;;;;;;;8.00;3.60;;;6.20;74.90;;;;;;5094637;28;20096;-64
2022/01/07 03:45:20;;;;;;;10.07;3.83;;;6.20;74.90;;;;;;5094546;28;20036;-64
2022/01/07 03:47:47;;;;;;;10.33;4.10;;;6.20;75.00;;;;;;5087634;28;20031;-64
2022/01/07 03:50:16;;;;;;;9.37;3.47;;;6.20;75.00;;;;;;5094537;28;20038;-64
2022/01/07 03:52:42;;;;;;;7.73;3.47;;;6.30;75.10;;;;;;5094221;28;20032;-63
2022/01/07 03:55:11;;;;;;;7.30;3.10;;;6.20;75.10;;;;;;5094371;28;20445;-64
2022/01/07 03:57:37;;;;;;;8.70;3.63;;;6.30;75.30;;;;;;5093734;28;20024;-64
2022/01/07 04:00:27;;;;;;;9.37;3.00;;;6.20;75.40;;;;;;5094358;28;20036;-64
2022/01/07 04:02:53;;;;;;;8.87;3.40;;;6.20;75.80;;;;;;5092567;28;20364;-64
2022/01/07 04:05:21;;;;;;;9.63;4.37;;;6.20;75.50;;;;;;5094363;28;20063;-65
2022/01/07 04:07:46;;;;;;;8.00;3.10;;;6.20;75.60;;;;;;5094461;28;20034;-64
2022/01/07 04:10:12;;;;;;;7.13;3.20;;;6.20;75.60;;;;;;5094346;28;20368;-64
2022/01/07 04:12:37;;;;;;;6.93;3.37;;;6.10;75.70;;;;;;5085329;28;20501;-64
2022/01/07 04:15:10;;;;;;;7.07;3.70;;;6.10;75.70;;;;;;5094093;28;20035;-63
2022/01/07 04:17:36;;;;;;;10.50;3.47;;;6.10;75.80;;;;;;5093583;28;20028;-64
2022/01/07 04:20:05;;;;;;;9.47;3.60;;;6.10;75.80;;;;;;5094272;28;20028;-63
2022/01/07 04:22:30;;;;;;;11.50;4.00;;;6.10;75.90;;;;;;5093748;28;20452;-64
2022/01/07 04:24:56;;;;;;;10.33;3.37;;;6.10;75.90;;;;;;5094338;28;20060;-64
2022/01/07 04:27:21;;;;;;;10.53;4.30;;;6.20;76.00;;;;;;5076243;28;20056;-63
2022/01/07 04:29:47;;;;;;;10.57;4.00;;;6.20;76.10;;;;;;5093030;28;20024;-63
2022/01/07 04:32:13;;;;;;;6.60;3.23;;;6.20;76.10;;;;;;5094274;28;20025;-63
2022/01/07 04:34:38;;;;;;;9.20;3.60;;;6.20;76.10;;;;;;5093530;28;20043;-63
2022/01/07 04:37:04;;;;;;;7.20;3.27;;;6.20;76.10;;;;;;5093945;28;20036;-64
2022/01/07 04:39:30;;;;;;;9.77;3.97;;;6.20;76.10;;;;;;5076252;28;20103;-64
2022/01/07 04:41:59;;;;;;;8.43;4.07;;;6.20;76.20;;;;;;5093414;28;20410;-64
2022/01/07 04:44:24;;;;;;;8.87;4.10;;;6.10;76.10;;;;;;5093532;28;20032;-63
2022/01/07 04:46:50;;;;;;;9.70;3.37;;;6.10;76.30;;;;;;5093444;28;20051;-63
2022/01/07 04:49:16;;;;;;;8.63;3.83;;;6.10;76.40;;;;;;5093621;28;20031;-63
2022/01/07 04:51:41;;;;;;;11.00;3.50;;;6.10;76.40;;;;;;5093712;28;20378;-64
2022/01/07 04:54:07;;;;;;;9.13;3.50;;;6.10;76.50;;;;;;5093802;28;20031;-64
2022/01/07 04:56:32;;;;;;;9.03;3.67;;;6.10;76.50;;;;;;5086075;28;20116;-64
2022/01/07 04:58:58;;;;;;;6.83;3.47;;;6.10;76.50;;;;;;5093804;28;20028;-64
2022/01/07 05:01:23;;;;;;;7.23;3.77;;;6.00;76.50;;;;;;5093224;28;20365;-64
2022/01/07 05:03:49;;;;;;;9.50;3.83;;;6.00;76.60;;;;;;5093820;28;20031;-64
2022/01/07 05:08:59;;;;;;;8.40;3.27;;;6.00;76.70;;;;;;5094268;28;20034;-63
2022/01/07 05:11:24;;;;;;;8.07;3.37;;;6.00;76.80;;;;;;5097393;28;20119;-63
2022/01/07 05:13:50;;;;;;;11.33;3.90;;;6.00;76.90;;;;;;5097365;28;20023;-63
2022/01/07 05:16:15;;;;;;;8.63;3.30;;;6.00;76.90;;;;;;5097849;28;20025;-64
2022/01/07 05:18:41;;;;;;;10.67;3.53;;;6.00;77.00;;;;;;5097154;28;20024;-64
2022/01/07 05:21:06;;;;;;;7.90;3.20;;;6.00;77.00;;;;;;5097681;28;20027;-63
2022/01/07 05:23:32;;;;;;;8.27;3.57;;;6.00;77.00;;;;;;5097574;28;20024;-63
2022/01/07 05:25:58;;;;;;;7.37;3.13;;;6.00;77.10;;;;;;5097402;28;20051;-63
2022/01/07 05:28:23;;;;;;;7.80;3.20;;;6.10;77.20;;;;;;5097711;28;20114;-63
2022/01/07 05:30:49;;;;;;;8.67;3.57;;;6.10;77.30;;;;;;5097972;28;20028;-64
2022/01/07 05:33:14;;;;;;;7.97;3.60;;;6.10;77.30;;;;;;5097638;28;20024;-64
2022/01/07 05:35:40;;;;;;;7.40;3.67;;;6.10;77.40;;;;;;5096725;28;20115;-64
2022/01/07 05:38:05;;;;;;;8.07;3.50;;;6.10;77.40;;;;;;5097586;28;20028;-64
2022/01/07 05:40:31;;;;;;;8.60;3.60;;;6.10;77.40;;;;;;5078919;28;20032;-63
2022/01/07 05:42:57;;;;;;;9.10;3.37;;;6.20;77.50;;;;;;5097543;28;20039;-64
2022/01/07 05:45:22;;;;;;;11.63;4.30;;;6.20;77.50;;;;;;5096103;28;20021;-64
2022/01/07 05:47:48;;;;;;;7.87;3.30;;;6.20;77.60;;;;;;5097306;28;20035;-64
2022/01/07 05:50:14;;;;;;;7.10;3.47;;;6.20;77.70;;;;;;5092285;28;20107;-64
2022/01/07 05:52:39;;;;;;;7.73;3.63;;;6.20;77.60;;;;;;5097098;28;20024;-63
2022/01/07 05:55:06;;;;;;;6.60;3.30;;;6.20;77.70;;;;;;5095652;28;20035;-63
2022/01/07 05:57:31;;;;;;;7.07;3.47;;;6.30;77.80;;;;;;5095323;28;20109;-64
2022/01/07 05:59:57;;;;;;;9.23;3.57;;;6.30;77.90;;;;;;5097148;28;20406;-64
2022/01/07 06:02:23;;;;;;;8.90;3.37;;;6.20;78.40;;;;;;5096318;28;20028;-64
2022/01/07 06:04:48;;;;;;;8.63;3.60;;;6.30;77.90;;;;;;5078164;28;20395;-64
2022/01/07 06:07:14;;;;;;;7.13;3.43;;;6.30;78.00;;;;;;5095558;28;20032;-64
2022/01/07 06:09:39;;;;;;;8.70;3.80;;;6.30;78.10;;;;;;5079005;28;20073;-64
2022/01/07 06:12:05;;;;;;;8.87;4.10;;;6.30;78.10;;;;;;5096700;28;20351;-64
2022/01/07 06:14:31;;;;;;;9.67;3.80;;;6.30;78.10;;;;;;5101736;28;20044;-64
2022/01/07 06:16:57;;;;;;;9.73;4.10;;;6.30;78.20;;;;;;5095629;28;20063;-64
2022/01/07 06:19:22;;;;;;;8.93;4.47;;;6.30;78.30;;;;;;5095452;28;20375;-64
2022/01/07 06:21:48;;;;;;;8.50;4.00;;;6.30;78.40;;;;;;5078448;28;20501;-63
2022/01/07 06:24:13;;;;;;;12.50;5.20;;;6.30;78.40;;;;;;5096331;28;20037;-63
2022/01/07 06:26:39;;;;;;;8.53;4.67;;;6.40;78.60;;;;;;5095377;28;20426;-63
2022/01/07 06:29:05;;;;;;;11.67;4.80;;;6.40;78.50;;;;;;5078518;28;20028;-63
2022/01/07 06:31:31;;;;;;;9.47;4.43;;;6.40;78.50;;;;;;5095961;28;20039;-63
2022/01/07 06:33:58;;;;;;;7.13;4.07;;;6.40;78.60;;;;;;5096765;28;20398;-63
2022/01/07 06:36:25;;;;;;;11.23;5.30;;;6.50;78.60;;;;;;5096087;28;20059;-63
2022/01/07 06:38:50;;;;;;;9.80;4.10;;;6.50;78.60;;;;;;5096303;28;20028;-63
2022/01/07 06:41:16;;;;;;;10.40;4.83;;;6.50;78.60;;;;;;5096087;28;20092;-64
2022/01/07 06:43:43;;;;;;;7.90;4.47;;;6.50;78.70;;;;;;5096214;28;20364;-64
2022/01/07 06:46:11;;;;;;;8.20;4.60;;;6.50;78.80;;;;;;5095773;28;20030;-63
2022/01/07 06:48:37;;;;;;;10.33;4.93;;;6.50;78.80;;;;;;5095793;28;20089;-64
2022/01/07 06:51:02;;;;;;;8.87;4.90;;;6.50;78.80;;;;;;5096048;28;20028;-64
2022/01/07 06:53:30;;;;;;;12.40;5.27;;;6.60;78.90;;;;;;5096129;28;20022;-64
2022/01/07 06:56:00;;;;;;;11.10;5.27;;;6.60;78.90;;;;;;5095299;28;20354;-63
2022/01/07 06:58:26;;;;;;;9.03;5.23;;;6.60;79.00;;;;;;5078305;28;20031;-63
2022/01/07 07:00:53;;;;;;;11.73;5.60;;;6.60;79.00;;;;;;5095909;28;20460;-64
2022/01/07 07:03:18;;;;;;;8.97;5.37;;;6.60;79.00;;;;;;5094921;28;20127;-63
2022/01/07 07:05:44;;;;;;;12.10;5.80;;;6.60;79.00;;;;;;5095555;28;20130;-63
2022/01/07 07:08:10;;;;;;;12.80;5.80;;;6.70;79.10;;;;;;5095408;28;20024;-63
2022/01/07 07:10:35;;;;;;;9.43;5.73;;;6.70;79.10;;;;;;5095369;28;20024;-63
2022/01/07 07:13:01;;;;;;;11.17;6.43;;;6.70;79.10;;;;;;5077518;28;20054;-64
2022/01/07 07:15:27;;;;;;;11.60;5.83;;;6.70;79.20;;;;;;5077161;28;20027;-64
2022/01/07 07:17:52;;;;;;;9.53;5.33;;;6.70;79.20;;;;;;5083867;28;20028;-64
2022/01/07 07:20:18;;;;;;;11.03;5.57;;;6.90;79.20;;;;;;5095855;28;20035;-65
2022/01/07 07:22:44;;;;;;;12.40;5.60;;;6.90;79.10;;;;;;5096020;28;20027;-64
2022/01/07 07:25:10;;;;;;;12.90;6.73;;;6.90;79.10;;;;;;5094972;28;20035;-64
2022/01/07 07:27:36;;;;;;;9.23;5.83;;;6.90;79.00;;;;;;5077796;28;20408;-64
2022/01/07 07:30:05;;;;;;;13.13;6.57;;;7.00;79.10;;;;;;5077253;28;20038;-64
2022/01/07 07:32:31;;;;;;;11.50;5.83;;;6.90;79.10;;;;;;5095014;28;20024;-64
2022/01/07 07:35:03;;;;;;;12.10;6.03;;;6.90;79.10;;;;;;5060514;28;20020;-65
2022/01/07 07:37:29;;;;;;;11.87;6.23;;;6.90;79.10;;;;;;5095018;28;20364;-64
2022/01/07 07:39:55;;;;;;;12.77;6.33;;;6.90;79.10;;;;;;5076838;28;20036;-65
2022/01/07 07:42:21;;;;;;;11.63;6.50;;;6.90;79.20;;;;;;5094877;28;20035;-64
2022/01/07 07:44:50;;;;;;;10.83;6.20;;;6.90;79.20;;;;;;5076596;28;20020;-64
2022/01/07 07:47:16;;;;;;;11.33;5.50;;;6.90;79.20;;;;;;5095109;28;20349;-65
2022/01/07 07:49:41;;;;;;;13.03;6.13;;;7.00;79.30;;;;;;5094592;28;20028;-64
2022/01/07 07:52:07;;;;;;;11.40;6.07;;;7.00;79.30;;;;;;5094784;28;20106;-65
2022/01/07 07:54:32;;;;;;;12.53;6.57;;;7.00;79.20;;;;;;5077102;28;20045;-64
2022/01/07 07:56:59;;;;;;;11.90;5.50;;;7.00;79.30;;;;;;5076780;28;20036;-65
2022/01/07 07:59:25;;;;;;;12.53;6.03;;;7.00;79.30;;;;;;5094881;28;20111;-64
2022/01/07 08:01:51;;;;;;;13.10;6.27;;;7.00;79.40;;;;;;5094263;28;20447;-64
2022/01/07 08:04:19;;;;;;;11.10;5.47;;;7.00;79.40;;;;;;5094950;28;20063;-64
2022/01/07 08:06:45;;;;;;;10.27;5.60;;;7.00;79.40;;;;;;5076231;28;20451;-64
2022/01/07 08:09:11;;;;;;;13.17;7.00;;;7.10;79.40;;;;;;5094425;28;20020;-64
2022/01/07 08:11:49;;;;;;;11.13;6.07;;;7.00;79.30;;;;;;5094263;28;20039;-64
2022/01/07 08:17:03;;;;;;;11.00;6.23;;;7.00;79.30;;;;;;5090775;28;20039;-63
2022/01/07 08:19:29;;;;;;;12.23;6.87;;;7.00;79.40;;;;;;5095274;28;20028;-65
2022/01/07 08:21:55;;;;;;;12.13;6.60;;;7.00;79.40;;;;;;5093886;28;20031;-64
2022/01/07 08:24:20;;;;;;;11.27;6.90;;;7.10;79.40;;;;;;5093899;28;20024;-63
2022/01/07 08:26:46;;;;;;;11.00;5.83;;;7.10;79.40;;;;;;5093512;28;20048;-62
2022/01/07 08:29:14;;;;;;;12.67;6.17;;;7.10;79.40;;;;;;5076196;28;20074;-63
2022/01/07 08:36:51;;;;;;;15.07;6.80;;;7.10;79.40;;;;;;5094438;28;20028;-63
2022/01/07 08:39:16;;;;;;;12.20;6.87;;;7.20;79.40;;;;;;5093677;28;20032;-63
2022/01/07 08:41:43;;;;;;;12.67;7.53;;;7.20;79.40;;;;;;5093347;28;20043;-63
2022/01/07 08:44:10;;;;;;;10.60;6.90;;;7.20;79.40;;;;;;5079667;28;20039;-63
2022/01/07 08:46:36;;;;;;;13.43;6.27;;;7.20;79.40;;;;;;5099135;28;20054;-63
2022/01/07 08:49:04;;;;;;;10.63;6.47;;;7.20;79.40;;;;;;5099026;28;20046;-63
2022/01/07 08:51:30;;;;;;;12.03;6.43;;;7.20;79.40;;;;;;5098768;28;20028;-63
2022/01/07 08:53:56;;;;;;;11.00;6.70;;;7.20;79.40;;;;;;5097469;28;20035;-63
2022/01/07 08:56:26;;;;;;;11.93;6.53;;;7.20;79.40;;;;;;5082159;28;20020;-63
2022/01/07 08:58:56;;;;;;;10.80;6.00;;;7.20;79.40;;;;;;5097969;28;20085;-62
2022/01/07 09:01:23;;;;;;;10.57;5.57;;;7.30;79.40;;;;;;5098407;28;20361;-63
2022/01/07 09:03:49;;;;;;;11.77;6.63;;;7.30;79.40;;;;;;5098093;28;20024;-63
2022/01/07 09:06:14;;;;;;;12.37;6.63;;;7.30;79.30;;;;;;5079704;28;20039;-63
2022/01/07 09:08:40;;;;;;;10.70;6.03;;;7.30;79.30;;;;;;5098138;28;20135;-63
2022/01/07 09:11:07;;;;;;;12.97;6.63;;;7.40;79.30;;;;;;5094041;28;20035;-64
2022/01/07 09:13:32;;;;;;;12.97;6.27;;;7.40;79.20;;;;;;5097859;28;20043;-64
2022/01/07 09:15:58;;;;;;;12.93;7.93;;;7.40;79.20;;;;;;5095794;28;20020;-63
2022/01/07 09:18:25;;;;;;;11.50;7.00;;;7.40;79.20;;;;;;5079557;28;20356;-63
2022/01/07 09:20:51;;;;;;;12.10;6.63;;;7.40;79.20;;;;;;5097902;28;20047;-63
2022/01/07 09:23:17;;;;;;;10.87;7.00;;;7.40;79.20;;;;;;5097822;28;20352;-63
2022/01/07 09:25:43;;;;;;;11.93;6.90;;;7.40;79.80;;;;;;5100041;28;20034;-63
2022/01/07 09:28:10;;;;;;;11.57;6.93;;;7.40;79.20;;;;;;5097332;28;20032;-63
2022/01/07 09:30:36;;;;;;;11.93;6.40;;;7.50;79.30;;;;;;5095786;28;20124;-63
2022/01/07 09:33:03;;;;;;;10.97;6.87;;;7.50;79.30;;;;;;5097757;28;20028;-63
2022/01/07 09:35:29;;;;;;;12.63;6.07;;;7.50;79.30;;;;;;5097284;28;20059;-63
2022/01/07 09:37:55;;;;;;;14.97;7.23;;;7.50;79.30;;;;;;5097339;28;20028;-63
2022/01/07 09:40:22;;;;;;;10.37;7.40;;;7.50;79.30;;;;;;5097660;28;20031;-63
2022/01/07 09:43:02;;;;;;;10.13;7.23;;;7.50;79.30;;;;;;5096813;28;20024;-63
2022/01/07 09:45:30;;;;;;;12.97;6.40;;;7.60;79.30;;;;;;5077866;28;20059;-63
2022/01/07 09:47:57;;;;;;;12.73;6.33;;;7.60;79.10;;;;;;5101075;28;20107;-63
2022/01/07 09:50:24;;;;;;;14.00;6.80;;;7.70;79.00;;;;;;5096624;28;20020;-63
2022/01/07 09:52:50;;;;;;;11.67;6.00;;;7.80;78.90;;;;;;5078241;28;20027;-63
2022/01/07 09:55:16;;;;;;;9.63;6.03;;;7.80;78.70;;;;;;5078128;28;20028;-63
2022/01/07 09:57:42;;;;;;;12.33;6.70;;;7.80;78.70;;;;;;5095702;28;20372;-63
2022/01/07 10:00:09;;;;;;;11.30;6.53;;;7.80;78.70;;;;;;5096682;28;20357;-63
2022/01/07 10:02:38;;;;;;;13.77;5.53;;;7.80;78.70;;;;;;5083442;28;20406;-63
2022/01/07 10:05:17;;;;;;;12.43;5.77;;;7.80;78.80;;;;;;5096433;28;20138;-63
2022/01/07 10:07:43;;;;;;;12.60;5.83;;;7.80;78.70;;;;;;5096661;28;20115;-63
2022/01/07 10:10:10;;;;;;;15.37;6.93;;;7.90;78.70;;;;;;5096322;28;20059;-63
2022/01/07 10:13:00;;;;;;;14.00;6.00;;;7.90;78.60;;;;;;5096025;28;20448;-64
2022/01/07 10:15:28;;;;;;;12.27;6.73;;;7.80;78.70;;;;;;5095905;28;20012;-63
2022/01/07 10:18:01;;;;;;;12.07;7.27;;;7.80;78.70;;;;;;5078332;28;20039;-64
2022/01/07 10:21:06;;;;;;;11.97;6.40;;;7.90;78.70;;;;;;5096099;28;20081;-64
2022/01/07 10:23:31;;;;;;;13.40;6.53;;;7.90;78.50;;;;;;5096164;28;20036;-63
2022/01/07 10:25:57;;;;;;;9.87;5.77;;;8.00;78.50;;;;;;5095814;28;20069;-63
2022/01/07 10:28:32;;;;;;;15.00;6.83;;;8.00;78.40;;;;;;5096300;28;20452;-63
2022/01/07 10:31:00;;;;;;;12.90;6.67;;;8.10;78.40;;;;;;5078054;28;20494;-65
2022/01/07 10:33:25;;;;;;;11.70;6.73;;;8.20;78.30;;;;;;5095266;28;20081;-65
2022/01/07 10:36:08;;;;;;;10.77;6.00;;;8.20;78.20;;;;;;5060628;28;20659;-64
2022/01/07 10:39:07;;;;;;;13.77;7.23;;;8.20;78.20;;;;;;5095926;28;20055;-64
2022/01/07 10:41:32;;;;;;;9.73;6.00;;;8.20;78.20;;;;;;5035185;28;20055;-63
2022/01/07 10:44:04;;;;;;;12.77;6.80;;;8.20;78.30;;;;;;5092688;28;20024;-64
2022/01/07 10:46:31;;;;;;;12.02;5.72;;;8.20;78.30;;;;;;5096183;28;20032;-64
2022/01/07 10:49:02;;;;;;;10.93;6.60;;;8.10;78.30;;;;;;5096219;28;20052;-64
2022/01/07 10:51:38;;;;;;;13.65;6.82;;;8.10;78.30;;;;;;5077521;28;20448;-64
2022/01/07 10:54:06;;;;;;;11.90;6.27;;;8.10;78.30;;;;;;5096039;28;20028;-64
2022/01/07 10:56:31;;;;;;;12.50;6.53;;;8.10;78.30;;;;;;5095048;28;20476;-64
2022/01/07 10:59:09;;;;;;;9.93;5.77;;;8.10;78.30;;;;;;5077698;28;20024;-64
2022/01/07 11:01:37;;;;;;;14.10;5.40;;;8.20;78.30;;;;;;5092368;28;20035;-64
2022/01/07 11:04:07;;;;;;;13.13;5.50;;;8.20;78.30;;;;;;5088963;28;20105;-64
2022/01/07 11:06:33;;;;;;;10.20;5.37;;;8.20;78.20;;;;;;5094388;28;20024;-65
2022/01/07 11:09:00;;;;;;;11.47;5.80;;;8.20;78.10;;;;;;5095611;28;20031;-64
2022/01/07 11:11:28;;;;;;;13.18;5.70;;;8.20;78.10;;;;;;5076581;28;20028;-65
2022/01/07 11:13:55;;;;;;;16.47;6.07;;;8.30;78.20;;;;;;5077190;28;20034;-65
2022/01/07 11:16:24;;;;;;;9.93;4.97;;;8.30;78.00;;;;;;5095219;28;20043;-64
2022/01/07 11:18:50;;;;;;;8.00;4.60;;;8.40;78.00;;;;;;5093822;28;20170;-64
2022/01/07 11:21:18;;;;;;;10.40;5.97;;;8.40;77.90;;;;;;5095339;28;20095;-65
2022/01/07 11:23:45;;;;;;;10.82;4.85;;;8.40;77.80;;;;;;5094359;28;20437;-65
2022/01/07 11:26:12;;;;;;;9.13;5.25;;;8.40;77.80;;;;;;5094895;28;20058;-64
2022/01/07 11:29:02;;;;;;;9.53;5.17;;;8.40;77.80;;;;;;5094669;28;20031;-64
2022/01/07 11:31:29;;;;;;;11.48;5.55;;;8.40;77.70;;;;;;5074836;28;20083;-64
2022/01/07 11:34:19;;;;;;;12.10;5.55;;;8.40;77.70;;;;;;5080120;28;20046;-64
2022/01/07 11:36:46;;;;;;;9.02;5.30;;;8.40;77.60;;;;;;5074660;28;20040;-64
2022/01/07 11:39:11;;;;;;;11.13;5.18;;;8.40;77.60;;;;;;5091150;28;20067;-64
2022/01/07 11:41:50;;;;;;;7.67;4.47;;;8.40;77.60;;;;;;5105577;28;20381;-64
2022/01/07 11:44:29;;;;;;;13.27;5.70;;;8.40;77.60;;;;;;5076652;28;20337;-64
2022/01/07 11:47:13;;;;;;;10.83;4.83;;;8.40;77.50;;;;;;5094858;28;20035;-64
2022/01/07 11:49:39;;;;;;;8.67;4.87;;;8.40;77.40;;;;;;5094002;28;20028;-64
2022/01/07 11:52:27;;;;;;;11.17;4.53;;;8.40;77.30;;;;;;5077462;28;20039;-64
2022/01/07 11:55:18;;;;;;;10.43;4.83;;;8.40;77.20;;;;;;5095212;28;20034;-64
2022/01/07 11:57:51;;;;;;;7.65;4.35;;;8.50;77.10;;;;;;5094121;28;20024;-65
2022/01/07 12:00:56;;;;;;;8.23;4.03;;;8.50;77.10;;;;;;5094873;28;20056;-64
2022/01/07 12:03:37;;;;;;;10.55;4.30;;;8.50;77.00;;;;;;5076402;28;20136;-64
2022/01/07 12:06:27;;;;;;;10.77;4.80;;;8.50;77.00;;;;;;5094929;28;20089;-64
2022/01/07 12:08:56;;;;;;;10.43;4.73;;;8.50;76.90;;;;;;5094846;28;20024;-64
2022/01/07 12:11:23;;;;;;;7.33;3.83;;;8.50;76.90;;;;;;5094983;28;20117;-64
2022/01/07 12:13:49;;;;;;;12.30;4.00;;;8.50;76.80;;;;;;5077156;28;20024;-64
2022/01/07 12:16:19;;;;;;;8.53;4.17;;;8.50;76.80;;;;;;5108690;28;20392;-64
2022/01/07 12:18:44;;;;;;;10.90;4.18;;;8.50;76.60;;;;;;5081727;28;20024;-64
2022/01/07 12:21:11;;;;;;;9.18;3.92;;;8.60;76.50;;;;;;5073460;28;20042;-64
2022/01/07 12:23:37;;;;;;;11.43;4.60;;;8.60;76.30;;;;;;5075232;28;20062;-64
2022/01/07 12:26:03;;;;;;;8.75;3.63;;;8.60;76.20;;;;;;5073633;28;20028;-64
2022/01/07 12:28:36;;;;;;;8.02;3.50;;;8.60;76.00;;;;;;5074625;28;20055;-64
2022/01/07 12:31:11;;;;;;;9.82;3.15;;;8.60;75.90;;;;;;5075316;28;20032;-63
2022/01/07 12:33:52;;;;;;;10.63;4.38;;;8.70;75.90;;;;;;5093156;28;20024;-64
2022/01/07 12:36:34;;;;;;;11.15;3.90;;;8.70;75.70;;;;;;5090686;28;20020;-64
2022/01/07 12:39:01;;;;;;;11.45;3.95;;;8.70;75.70;;;;;;5091314;28;20347;-64
2022/01/07 12:41:26;;;;;;;10.98;4.28;;;8.70;75.50;;;;;;5091131;28;20030;-64
2022/01/07 12:44:05;;;;;;;8.55;3.88;;;8.80;76.10;;;;;;5089981;28;20447;-64
2022/01/07 12:46:31;;;;;;;9.67;4.03;;;8.80;75.30;;;;;;5084050;28;20085;-64
2022/01/07 12:48:56;;;;;;;10.02;4.18;;;8.80;75.30;;;;;;5092584;28;20020;-64
2022/01/07 12:51:22;;;;;;;9.75;4.15;;;8.80;75.20;;;;;;5088668;28;20028;-64
2022/01/07 12:54:02;;;;;;;10.18;4.05;;;8.90;75.20;;;;;;5092011;28;20085;-64
2022/01/07 12:56:37;;;;;;;9.98;4.13;;;8.90;75.00;;;;;;5090878;28;20028;-63
2022/01/07 12:59:19;;;;;;;9.27;3.80;;;8.90;74.90;;;;;;5087940;28;20054;-64
2022/01/07 13:01:48;;;;;;;11.38;4.53;;;8.90;74.70;;;;;;5089411;28;20111;-63
2022/01/07 13:04:16;;;;;;;11.18;4.00;;;8.90;74.70;;;;;;5088654;28;20521;-63